sensor_id;sensor_type;location;lat;lon;timestamp;P1;durP1;ratioP1;P2;durP2;ratioP2
47373;SDS011;33123;50.118;10.272;2023-05-23T00:01:58;3.75;;;2.65;;
47373;SDS011;33123;50.118;10.272;2023-05-23T00:04:25;2.55;;;2.35;;
47373;SDS011;33123;50.118;10.272;2023-05-23T00:06:52;3.10;;;2.50;;
47373;SDS011;33123;50.118;10.272;2023-05-23T00:09:18;2.30;;;2.10;;
47373;SDS011;33123;50.118;10.272;2023-05-23T00:11:45;2.15;;;1.95;;
47373;SDS011;33123;50.118;10.272;2023-05-23T00:14:11;2.38;;;2.03;;
47373;SDS011;33123;50.118;10.272;2023-05-23T00:16:40;2.78;;;1.95;;
47373;SDS011;33123;50.118;10.272;2023-05-23T00:19:08;2.70;;;1.80;;
47373;SDS011;33123;50.118;10.272;2023-05-23T00:21:35;4.90;;;2.30;;
47373;SDS011;33123;50.118;10.272;2023-05-23T00:24:02;2.63;;;2.42;;
47373;SDS011;33123;50.118;10.272;2023-05-23T00:26:29;4.15;;;2.92;;
47373;SDS011;33123;50.118;10.272;2023-05-23T00:28:56;3.03;;;2.83;;
47373;SDS011;33123;50.118;10.272;2023-05-23T00:31:23;3.75;;;3.45;;
47373;SDS011;33123;50.118;10.272;2023-05-23T00:33:51;2.40;;;2.20;;
47373;SDS011;33123;50.118;10.272;2023-05-23T00:36:18;3.03;;;2.05;;
47373;SDS011;33123;50.118;10.272;2023-05-23T00:38:46;4.43;;;2.65;;
47373;SDS011;33123;50.118;10.272;2023-05-23T00:41:13;2.63;;;2.33;;
47373;SDS011;33123;50.118;10.272;2023-05-23T00:43:39;2.53;;;2.33;;
47373;SDS011;33123;50.118;10.272;2023-05-23T00:46:06;1.60;;;1.50;;
47373;SDS011;33123;50.118;10.272;2023-05-23T00:48:35;2.47;;;2.28;;
47373;SDS011;33123;50.118;10.272;2023-05-23T00:51:04;3.95;;;3.28;;
47373;SDS011;33123;50.118;10.272;2023-05-23T00:53:31;2.75;;;2.50;;
47373;SDS011;33123;50.118;10.272;2023-05-23T00:55:58;2.67;;;2.47;;
47373;SDS011;33123;50.118;10.272;2023-05-23T00:58:25;2.25;;;2.00;;
47373;SDS011;33123;50.118;10.272;2023-05-23T01:00:52;2.80;;;2.50;;
47373;SDS011;33123;50.118;10.272;2023-05-23T01:03:19;2.28;;;2.08;;
47373;SDS011;33123;50.118;10.272;2023-05-23T01:05:47;2.80;;;2.58;;
47373;SDS011;33123;50.118;10.272;2023-05-23T01:08:15;4.30;;;2.40;;
47373;SDS011;33123;50.118;10.272;2023-05-23T01:10:42;3.28;;;2.22;;
47373;SDS011;33123;50.118;10.272;2023-05-23T01:13:12;3.00;;;2.45;;
47373;SDS011;33123;50.118;10.272;2023-05-23T01:15:46;2.15;;;2.00;;
47373;SDS011;33123;50.118;10.272;2023-05-23T01:18:20;2.47;;;2.25;;
47373;SDS011;33123;50.118;10.272;2023-05-23T01:20:53;2.72;;;2.45;;
47373;SDS011;33123;50.118;10.272;2023-05-23T01:23:32;4.75;;;2.50;;
47373;SDS011;33123;50.118;10.272;2023-05-23T01:26:20;2.78;;;2.58;;
47373;SDS011;33123;50.118;10.272;2023-05-23T01:28:59;3.92;;;2.17;;
47373;SDS011;33123;50.118;10.272;2023-05-23T01:31:34;2.95;;;2.03;;
47373;SDS011;33123;50.118;10.272;2023-05-23T01:34:02;2.65;;;2.42;;
47373;SDS011;33123;50.118;10.272;2023-05-23T01:36:32;2.42;;;2.22;;
47373;SDS011;33123;50.118;10.272;2023-05-23T01:38:59;3.60;;;2.08;;
47373;SDS011;33123;50.118;10.272;2023-05-23T01:41:26;4.20;;;2.58;;
47373;SDS011;33123;50.118;10.272;2023-05-23T01:43:53;3.03;;;2.35;;
47373;SDS011;33123;50.118;10.272;2023-05-23T01:46:21;3.13;;;2.08;;
47373;SDS011;33123;50.118;10.272;2023-05-23T01:48:49;1.65;;;1.48;;
47373;SDS011;33123;50.118;10.272;2023-05-23T01:51:16;3.47;;;2.42;;
47373;SDS011;33123;50.118;10.272;2023-05-23T01:53:42;2.55;;;2.33;;
47373;SDS011;33123;50.118;10.272;2023-05-23T01:56:09;3.55;;;2.45;;
47373;SDS011;33123;50.118;10.272;2023-05-23T01:58:36;2.35;;;2.10;;
47373;SDS011;33123;50.118;10.272;2023-05-23T02:01:02;2.53;;;2.30;;
47373;SDS011;33123;50.118;10.272;2023-05-23T02:03:31;2.63;;;1.77;;
47373;SDS011;33123;50.118;10.272;2023-05-23T02:05:58;2.67;;;1.90;;
47373;SDS011;33123;50.118;10.272;2023-05-23T02:08:24;2.33;;;1.92;;
47373;SDS011;33123;50.118;10.272;2023-05-23T02:10:51;2.88;;;2.00;;
47373;SDS011;33123;50.118;10.272;2023-05-23T02:13:17;3.10;;;2.50;;
47373;SDS011;33123;50.118;10.272;2023-05-23T02:15:44;2.67;;;2.47;;
47373;SDS011;33123;50.118;10.272;2023-05-23T02:18:10;2.72;;;2.45;;
47373;SDS011;33123;50.118;10.272;2023-05-23T02:20:38;2.42;;;2.20;;
47373;SDS011;33123;50.118;10.272;2023-05-23T02:23:05;4.10;;;2.55;;
47373;SDS011;33123;50.118;10.272;2023-05-23T02:25:32;2.05;;;1.83;;
47373;SDS011;33123;50.118;10.272;2023-05-23T02:27:58;4.53;;;2.33;;
47373;SDS011;33123;50.118;10.272;2023-05-23T02:30:25;2.67;;;2.15;;
47373;SDS011;33123;50.118;10.272;2023-05-23T02:32:51;3.30;;;3.00;;
47373;SDS011;33123;50.118;10.272;2023-05-23T02:35:18;4.40;;;3.00;;
47373;SDS011;33123;50.118;10.272;2023-05-23T02:37:47;3.80;;;2.70;;
47373;SDS011;33123;50.118;10.272;2023-05-23T02:40:13;2.50;;;2.30;;
47373;SDS011;33123;50.118;10.272;2023-05-23T02:42:40;4.40;;;2.78;;
47373;SDS011;33123;50.118;10.272;2023-05-23T02:45:07;4.03;;;3.20;;
47373;SDS011;33123;50.118;10.272;2023-05-23T02:47:34;3.60;;;2.80;;
47373;SDS011;33123;50.118;10.272;2023-05-23T02:50:00;4.50;;;3.63;;
47373;SDS011;33123;50.118;10.272;2023-05-23T02:52:27;4.15;;;2.40;;
47373;SDS011;33123;50.118;10.272;2023-05-23T02:54:55;3.50;;;2.83;;
47373;SDS011;33123;50.118;10.272;2023-05-23T02:57:22;3.33;;;2.33;;
47373;SDS011;33123;50.118;10.272;2023-05-23T02:59:48;2.85;;;2.53;;
47373;SDS011;33123;50.118;10.272;2023-05-23T03:02:15;3.88;;;2.40;;
47373;SDS011;33123;50.118;10.272;2023-05-23T03:04:41;2.53;;;2.15;;
47373;SDS011;33123;50.118;10.272;2023-05-23T03:07:08;2.67;;;2.17;;
47373;SDS011;33123;50.118;10.272;2023-05-23T03:09:36;2.10;;;1.90;;
47373;SDS011;33123;50.118;10.272;2023-05-23T03:12:04;2.20;;;2.00;;
47373;SDS011;33123;50.118;10.272;2023-05-23T03:14:31;2.67;;;2.47;;
47373;SDS011;33123;50.118;10.272;2023-05-23T03:16:58;3.28;;;2.25;;
47373;SDS011;33123;50.118;10.272;2023-05-23T03:19:24;2.20;;;1.75;;
47373;SDS011;33123;50.118;10.272;2023-05-23T03:21:51;2.40;;;2.17;;
47373;SDS011;33123;50.118;10.272;2023-05-23T03:24:17;3.38;;;2.85;;
47373;SDS011;33123;50.118;10.272;2023-05-23T03:26:44;4.85;;;3.22;;
47373;SDS011;33123;50.118;10.272;2023-05-23T03:29:12;3.25;;;2.25;;
47373;SDS011;33123;50.118;10.272;2023-05-23T03:31:38;2.50;;;2.15;;
47373;SDS011;33123;50.118;10.272;2023-05-23T03:34:05;3.20;;;2.58;;
47373;SDS011;33123;50.118;10.272;2023-05-23T03:36:32;4.97;;;3.22;;
47373;SDS011;33123;50.118;10.272;2023-05-23T03:38:59;3.65;;;2.25;;
47373;SDS011;33123;50.118;10.272;2023-05-23T03:41:26;3.28;;;2.63;;
47373;SDS011;33123;50.118;10.272;2023-05-23T03:43:53;6.05;;;2.63;;
47373;SDS011;33123;50.118;10.272;2023-05-23T03:46:21;2.22;;;2.03;;
47373;SDS011;33123;50.118;10.272;2023-05-23T03:48:47;2.55;;;2.35;;
47373;SDS011;33123;50.118;10.272;2023-05-23T03:51:15;3.53;;;2.88;;
47373;SDS011;33123;50.118;10.272;2023-05-23T03:53:42;2.42;;;1.90;;
47373;SDS011;33123;50.118;10.272;2023-05-23T03:56:08;2.00;;;1.85;;
47373;SDS011;33123;50.118;10.272;2023-05-23T03:58:35;3.20;;;2.20;;
47373;SDS011;33123;50.118;10.272;2023-05-23T04:01:01;2.95;;;2.22;;
47373;SDS011;33123;50.118;10.272;2023-05-23T04:03:30;3.05;;;2.38;;
47373;SDS011;33123;50.118;10.272;2023-05-23T04:05:57;2.28;;;2.08;;
47373;SDS011;33123;50.118;10.272;2023-05-23T04:08:24;3.22;;;2.50;;
47373;SDS011;33123;50.118;10.272;2023-05-23T04:10:51;3.70;;;3.40;;
47373;SDS011;33123;50.118;10.272;2023-05-23T04:13:18;3.03;;;2.55;;
47373;SDS011;33123;50.118;10.272;2023-05-23T04:15:45;5.75;;;3.65;;
47373;SDS011;33123;50.118;10.272;2023-05-23T04:18:12;3.50;;;2.60;;
47373;SDS011;33123;50.118;10.272;2023-05-23T04:20:40;3.25;;;2.97;;
47373;SDS011;33123;50.118;10.272;2023-05-23T04:23:07;3.72;;;3.33;;
47373;SDS011;33123;50.118;10.272;2023-05-23T04:25:34;3.35;;;2.38;;
47373;SDS011;33123;50.118;10.272;2023-05-23T04:28:00;3.15;;;2.85;;
47373;SDS011;33123;50.118;10.272;2023-05-23T04:30:27;3.42;;;3.10;;
47373;SDS011;33123;50.118;10.272;2023-05-23T04:32:54;2.80;;;2.50;;
47373;SDS011;33123;50.118;10.272;2023-05-23T04:35:22;3.22;;;2.75;;
47373;SDS011;33123;50.118;10.272;2023-05-23T04:37:50;3.35;;;2.30;;
47373;SDS011;33123;50.118;10.272;2023-05-23T04:40:20;3.50;;;3.17;;
47373;SDS011;33123;50.118;10.272;2023-05-23T04:42:47;3.92;;;3.00;;
47373;SDS011;33123;50.118;10.272;2023-05-23T04:45:15;5.22;;;3.08;;
47373;SDS011;33123;50.118;10.272;2023-05-23T04:47:43;3.17;;;2.75;;
47373;SDS011;33123;50.118;10.272;2023-05-23T04:50:10;2.63;;;2.42;;
47373;SDS011;33123;50.118;10.272;2023-05-23T04:52:38;3.47;;;2.95;;
47373;SDS011;33123;50.118;10.272;2023-05-23T04:55:07;3.35;;;3.05;;
47373;SDS011;33123;50.118;10.272;2023-05-23T04:57:34;2.88;;;2.35;;
47373;SDS011;33123;50.118;10.272;2023-05-23T05:00:01;3.47;;;2.63;;
47373;SDS011;33123;50.118;10.272;2023-05-23T05:02:31;4.25;;;3.08;;
47373;SDS011;33123;50.118;10.272;2023-05-23T05:04:59;3.42;;;3.13;;
47373;SDS011;33123;50.118;10.272;2023-05-23T05:07:25;2.25;;;2.05;;
47373;SDS011;33123;50.118;10.272;2023-05-23T05:09:53;7.07;;;3.10;;
47373;SDS011;33123;50.118;10.272;2023-05-23T05:12:21;4.53;;;3.33;;
47373;SDS011;33123;50.118;10.272;2023-05-23T05:14:47;3.58;;;3.28;;
47373;SDS011;33123;50.118;10.272;2023-05-23T05:17:14;3.85;;;3.45;;
47373;SDS011;33123;50.118;10.272;2023-05-23T05:19:41;3.47;;;3.17;;
47373;SDS011;33123;50.118;10.272;2023-05-23T05:22:07;3.22;;;2.85;;
47373;SDS011;33123;50.118;10.272;2023-05-23T05:24:34;4.70;;;3.10;;
47373;SDS011;33123;50.118;10.272;2023-05-23T05:27:00;3.85;;;3.55;;
47373;SDS011;33123;50.118;10.272;2023-05-23T05:29:28;3.03;;;2.72;;
47373;SDS011;33123;50.118;10.272;2023-05-23T05:31:55;5.15;;;3.92;;
47373;SDS011;33123;50.118;10.272;2023-05-23T05:34:22;4.57;;;3.55;;
47373;SDS011;33123;50.118;10.272;2023-05-23T05:36:48;3.30;;;3.05;;
47373;SDS011;33123;50.118;10.272;2023-05-23T05:39:15;8.15;;;3.92;;
47373;SDS011;33123;50.118;10.272;2023-05-23T05:41:41;4.68;;;4.10;;
47373;SDS011;33123;50.118;10.272;2023-05-23T05:44:08;4.55;;;3.50;;
47373;SDS011;33123;50.118;10.272;2023-05-23T05:46:36;4.00;;;3.33;;
47373;SDS011;33123;50.118;10.272;2023-05-23T05:49:03;6.60;;;3.47;;
47373;SDS011;33123;50.118;10.272;2023-05-23T05:51:29;3.80;;;3.08;;
47373;SDS011;33123;50.118;10.272;2023-05-23T05:53:56;4.45;;;4.05;;
47373;SDS011;33123;50.118;10.272;2023-05-23T05:56:22;4.13;;;2.63;;
47373;SDS011;33123;50.118;10.272;2023-05-23T05:58:50;4.35;;;3.28;;
47373;SDS011;33123;50.118;10.272;2023-05-23T06:01:16;5.65;;;3.30;;
47373;SDS011;33123;50.118;10.272;2023-05-23T06:03:44;4.10;;;3.38;;
47373;SDS011;33123;50.118;10.272;2023-05-23T06:06:11;3.33;;;2.80;;
47373;SDS011;33123;50.118;10.272;2023-05-23T06:08:38;5.75;;;2.60;;
47373;SDS011;33123;50.118;10.272;2023-05-23T06:11:05;3.20;;;2.80;;
47373;SDS011;33123;50.118;10.272;2023-05-23T06:13:31;3.22;;;2.17;;
47373;SDS011;33123;50.118;10.272;2023-05-23T06:15:58;3.22;;;2.33;;
47373;SDS011;33123;50.118;10.272;2023-05-23T06:18:24;2.83;;;2.50;;
47373;SDS011;33123;50.118;10.272;2023-05-23T06:20:52;3.38;;;2.67;;
47373;SDS011;33123;50.118;10.272;2023-05-23T06:23:19;3.00;;;2.45;;
47373;SDS011;33123;50.118;10.272;2023-05-23T06:25:45;3.95;;;2.53;;
47373;SDS011;33123;50.118;10.272;2023-05-23T06:28:12;2.78;;;2.58;;
47373;SDS011;33123;50.118;10.272;2023-05-23T06:30:38;3.85;;;3.33;;
47373;SDS011;33123;50.118;10.272;2023-05-23T06:33:05;2.80;;;2.38;;
47373;SDS011;33123;50.118;10.272;2023-05-23T06:35:32;3.25;;;2.70;;
47373;SDS011;33123;50.118;10.272;2023-05-23T06:37:59;2.67;;;2.47;;
47373;SDS011;33123;50.118;10.272;2023-05-23T06:40:26;2.90;;;2.60;;
47373;SDS011;33123;50.118;10.272;2023-05-23T06:42:53;2.38;;;1.88;;
47373;SDS011;33123;50.118;10.272;2023-05-23T06:45:19;4.00;;;2.75;;
47373;SDS011;33123;50.118;10.272;2023-05-23T06:47:46;4.40;;;2.92;;
47373;SDS011;33123;50.118;10.272;2023-05-23T06:50:13;3.85;;;2.78;;
47373;SDS011;33123;50.118;10.272;2023-05-23T06:52:39;2.90;;;2.50;;
47373;SDS011;33123;50.118;10.272;2023-05-23T06:55:09;2.50;;;2.30;;
47373;SDS011;33123;50.118;10.272;2023-05-23T06:57:38;2.88;;;2.28;;
47373;SDS011;33123;50.118;10.272;2023-05-23T07:00:05;3.72;;;2.35;;
47373;SDS011;33123;50.118;10.272;2023-05-23T07:02:33;3.20;;;2.75;;
47373;SDS011;33123;50.118;10.272;2023-05-23T07:04:59;9.52;;;2.25;;
47373;SDS011;33123;50.118;10.272;2023-05-23T07:07:26;2.05;;;1.88;;
47373;SDS011;33123;50.118;10.272;2023-05-23T07:09:52;2.50;;;2.30;;
47373;SDS011;33123;50.118;10.272;2023-05-23T07:12:20;3.67;;;2.35;;
47373;SDS011;33123;50.118;10.272;2023-05-23T07:14:47;3.33;;;2.28;;
47373;SDS011;33123;50.118;10.272;2023-05-23T07:17:13;2.13;;;1.63;;
47373;SDS011;33123;50.118;10.272;2023-05-23T07:19:40;2.22;;;1.95;;
47373;SDS011;33123;50.118;10.272;2023-05-23T07:22:07;2.22;;;2.03;;
47373;SDS011;33123;50.118;10.272;2023-05-23T07:24:33;2.47;;;2.20;;
47373;SDS011;33123;50.118;10.272;2023-05-23T07:27:01;2.70;;;1.60;;
47373;SDS011;33123;50.118;10.272;2023-05-23T07:29:29;3.72;;;1.73;;
47373;SDS011;33123;50.118;10.272;2023-05-23T07:31:57;2.67;;;2.17;;
47373;SDS011;33123;50.118;10.272;2023-05-23T07:34:23;1.60;;;1.50;;
47373;SDS011;33123;50.118;10.272;2023-05-23T07:36:50;1.85;;;1.75;;
47373;SDS011;33123;50.118;10.272;2023-05-23T07:39:17;1.83;;;1.60;;
47373;SDS011;33123;50.118;10.272;2023-05-23T07:41:46;2.63;;;1.75;;
47373;SDS011;33123;50.118;10.272;2023-05-23T07:44:13;3.03;;;2.05;;
47373;SDS011;33123;50.118;10.272;2023-05-23T07:46:41;2.13;;;1.92;;
47373;SDS011;33123;50.118;10.272;2023-05-23T07:49:07;2.85;;;1.98;;
47373;SDS011;33123;50.118;10.272;2023-05-23T07:51:34;2.17;;;1.98;;
47373;SDS011;33123;50.118;10.272;2023-05-23T07:54:01;2.03;;;1.67;;
47373;SDS011;33123;50.118;10.272;2023-05-23T07:56:28;2.35;;;1.95;;
47373;SDS011;33123;50.118;10.272;2023-05-23T07:58:55;2.70;;;2.00;;
47373;SDS011;33123;50.118;10.272;2023-05-23T08:01:21;1.77;;;1.52;;
47373;SDS011;33123;50.118;10.272;2023-05-23T08:03:50;2.20;;;2.00;;
47373;SDS011;33123;50.118;10.272;2023-05-23T08:06:17;3.63;;;2.65;;
47373;SDS011;33123;50.118;10.272;2023-05-23T08:08:43;8.48;;;2.10;;
47373;SDS011;33123;50.118;10.272;2023-05-23T08:11:10;2.10;;;1.90;;
47373;SDS011;33123;50.118;10.272;2023-05-23T08:13:36;1.88;;;1.75;;
47373;SDS011;33123;50.118;10.272;2023-05-23T08:16:03;2.30;;;2.10;;
47373;SDS011;33123;50.118;10.272;2023-05-23T08:18:30;1.58;;;1.35;;
47373;SDS011;33123;50.118;10.272;2023-05-23T08:20:58;1.80;;;1.45;;
47373;SDS011;33123;50.118;10.272;2023-05-23T08:23:27;1.80;;;1.48;;
47373;SDS011;33123;50.118;10.272;2023-05-23T08:25:53;2.30;;;2.10;;
47373;SDS011;33123;50.118;10.272;2023-05-23T08:28:21;1.48;;;1.38;;
47373;SDS011;33123;50.118;10.272;2023-05-23T08:30:47;1.77;;;1.50;;
47373;SDS011;33123;50.118;10.272;2023-05-23T08:33:14;1.67;;;1.58;;
47373;SDS011;33123;50.118;10.272;2023-05-23T08:35:41;2.00;;;1.67;;
47373;SDS011;33123;50.118;10.272;2023-05-23T08:38:09;3.80;;;2.00;;
47373;SDS011;33123;50.118;10.272;2023-05-23T08:40:36;1.42;;;1.33;;
47373;SDS011;33123;50.118;10.272;2023-05-23T08:43:05;2.13;;;1.25;;
47373;SDS011;33123;50.118;10.272;2023-05-23T08:45:34;4.57;;;1.15;;
47373;SDS011;33123;50.118;10.272;2023-05-23T08:48:01;1.75;;;1.65;;
47373;SDS011;33123;50.118;10.272;2023-05-23T08:50:33;1.50;;;1.40;;
47373;SDS011;33123;50.118;10.272;2023-05-23T08:53:02;1.55;;;1.45;;
47373;SDS011;33123;50.118;10.272;2023-05-23T08:55:34;1.05;;;1.00;;
47373;SDS011;33123;50.118;10.272;2023-05-23T08:58:02;2.15;;;1.67;;
47373;SDS011;33123;50.118;10.272;2023-05-23T09:00:29;1.13;;;1.05;;
47373;SDS011;33123;50.118;10.272;2023-05-23T09:02:59;1.27;;;1.17;;
47373;SDS011;33123;50.118;10.272;2023-05-23T09:05:25;1.02;;;1.02;;
47373;SDS011;33123;50.118;10.272;2023-05-23T09:07:52;1.40;;;0.90;;
47373;SDS011;33123;50.118;10.272;2023-05-23T09:10:19;0.90;;;0.90;;
47373;SDS011;33123;50.118;10.272;2023-05-23T09:12:47;0.95;;;0.95;;
47373;SDS011;33123;50.118;10.272;2023-05-23T09:15:14;1.85;;;1.45;;
47373;SDS011;33123;50.118;10.272;2023-05-23T09:17:41;0.93;;;0.93;;
47373;SDS011;33123;50.118;10.272;2023-05-23T09:20:10;1.35;;;1.25;;
47373;SDS011;33123;50.118;10.272;2023-05-23T09:22:38;0.95;;;0.90;;
47373;SDS011;33123;50.118;10.272;2023-05-23T09:25:05;1.42;;;1.33;;
47373;SDS011;33123;50.118;10.272;2023-05-23T09:27:33;1.77;;;1.27;;
47373;SDS011;33123;50.118;10.272;2023-05-23T09:30:05;1.45;;;1.30;;
47373;SDS011;33123;50.118;10.272;2023-05-23T09:32:32;1.35;;;1.17;;
47373;SDS011;33123;50.118;10.272;2023-05-23T09:34:59;1.92;;;1.27;;
47373;SDS011;33123;50.118;10.272;2023-05-23T09:37:28;1.20;;;1.10;;
47373;SDS011;33123;50.118;10.272;2023-05-23T09:39:57;1.15;;;1.13;;
47373;SDS011;33123;50.118;10.272;2023-05-23T09:42:25;1.30;;;1.20;;
47373;SDS011;33123;50.118;10.272;2023-05-23T09:44:57;1.73;;;1.17;;
47373;SDS011;33123;50.118;10.272;2023-05-23T09:47:25;1.10;;;1.05;;
47373;SDS011;33123;50.118;10.272;2023-05-23T09:49:52;1.90;;;1.30;;
47373;SDS011;33123;50.118;10.272;2023-05-23T09:52:19;1.00;;;1.00;;
47373;SDS011;33123;50.118;10.272;2023-05-23T09:54:45;1.02;;;1.02;;
47373;SDS011;33123;50.118;10.272;2023-05-23T09:57:14;1.10;;;1.00;;
47373;SDS011;33123;50.118;10.272;2023-05-23T09:59:43;1.70;;;1.60;;
47373;SDS011;33123;50.118;10.272;2023-05-23T10:02:14;1.27;;;1.27;;
47373;SDS011;33123;50.118;10.272;2023-05-23T10:04:44;0.90;;;0.90;;
47373;SDS011;33123;50.118;10.272;2023-05-23T10:07:13;1.27;;;1.17;;
47373;SDS011;33123;50.118;10.272;2023-05-23T10:09:46;1.17;;;1.08;;
47373;SDS011;33123;50.118;10.272;2023-05-23T10:15:14;1.63;;;1.52;;
47373;SDS011;33123;50.118;10.272;2023-05-23T10:20:34;1.25;;;1.15;;
47373;SDS011;33123;50.118;10.272;2023-05-23T10:23:01;1.08;;;1.08;;
47373;SDS011;33123;50.118;10.272;2023-05-23T10:25:29;0.95;;;0.95;;
47373;SDS011;33123;50.118;10.272;2023-05-23T10:27:56;0.98;;;0.98;;
47373;SDS011;33123;50.118;10.272;2023-05-23T10:30:24;1.20;;;1.10;;
47373;SDS011;33123;50.118;10.272;2023-05-23T10:32:51;1.08;;;0.98;;
47373;SDS011;33123;50.118;10.272;2023-05-23T10:35:21;0.82;;;0.82;;
47373;SDS011;33123;50.118;10.272;2023-05-23T10:37:55;5.43;;;2.10;;
47373;SDS011;33123;50.118;10.272;2023-05-23T10:40:28;1.40;;;1.30;;
47373;SDS011;33123;50.118;10.272;2023-05-23T10:43:01;0.90;;;0.90;;
47373;SDS011;33123;50.118;10.272;2023-05-23T10:45:31;1.60;;;1.40;;
47373;SDS011;33123;50.118;10.272;2023-05-23T10:48:09;1.08;;;1.00;;
47373;SDS011;33123;50.118;10.272;2023-05-23T10:50:45;1.17;;;1.08;;
47373;SDS011;33123;50.118;10.272;2023-05-23T10:53:29;1.15;;;1.08;;
47373;SDS011;33123;50.118;10.272;2023-05-23T10:55:56;1.38;;;1.27;;
47373;SDS011;33123;50.118;10.272;2023-05-23T10:58:23;1.58;;;1.48;;
47373;SDS011;33123;50.118;10.272;2023-05-23T11:00:50;1.23;;;1.13;;
47373;SDS011;33123;50.118;10.272;2023-05-23T11:03:28;1.13;;;1.05;;
47373;SDS011;33123;50.118;10.272;2023-05-23T11:05:57;1.48;;;1.33;;
47373;SDS011;33123;50.118;10.272;2023-05-23T11:08:24;0.98;;;0.98;;
47373;SDS011;33123;50.118;10.272;2023-05-23T11:10:53;2.45;;;1.40;;
47373;SDS011;33123;50.118;10.272;2023-05-23T11:13:21;1.20;;;1.10;;
47373;SDS011;33123;50.118;10.272;2023-05-23T11:15:48;1.70;;;1.60;;
47373;SDS011;33123;50.118;10.272;2023-05-23T11:18:18;5.55;;;2.00;;
47373;SDS011;33123;50.118;10.272;2023-05-23T11:20:46;1.52;;;1.42;;
47373;SDS011;33123;50.118;10.272;2023-05-23T11:23:15;1.65;;;1.25;;
47373;SDS011;33123;50.118;10.272;2023-05-23T11:25:41;1.00;;;1.00;;
47373;SDS011;33123;50.118;10.272;2023-05-23T11:28:11;1.00;;;1.00;;
47373;SDS011;33123;50.118;10.272;2023-05-23T11:30:38;1.48;;;1.38;;
47373;SDS011;33123;50.118;10.272;2023-05-23T11:33:06;1.60;;;1.25;;
47373;SDS011;33123;50.118;10.272;2023-05-23T11:35:37;1.20;;;1.10;;
47373;SDS011;33123;50.118;10.272;2023-05-23T11:38:04;2.13;;;1.67;;
47373;SDS011;33123;50.118;10.272;2023-05-23T11:40:31;1.40;;;1.30;;
47373;SDS011;33123;50.118;10.272;2023-05-23T11:42:59;1.10;;;1.10;;
47373;SDS011;33123;50.118;10.272;2023-05-23T11:45:29;1.00;;;1.00;;
47373;SDS011;33123;50.118;10.272;2023-05-23T11:47:56;2.50;;;1.58;;
47373;SDS011;33123;50.118;10.272;2023-05-23T11:50:23;1.10;;;1.10;;
47373;SDS011;33123;50.118;10.272;2023-05-23T11:52:53;1.65;;;1.55;;
47373;SDS011;33123;50.118;10.272;2023-05-23T11:55:20;1.27;;;1.17;;
47373;SDS011;33123;50.118;10.272;2023-05-23T11:57:47;1.65;;;1.55;;
47373;SDS011;33123;50.118;10.272;2023-05-23T12:00:15;1.00;;;1.00;;
47373;SDS011;33123;50.118;10.272;2023-05-23T12:02:44;0.93;;;0.93;;
47373;SDS011;33123;50.118;10.272;2023-05-23T12:05:13;1.15;;;1.05;;
47373;SDS011;33123;50.118;10.272;2023-05-23T12:07:40;1.20;;;1.10;;
47373;SDS011;33123;50.118;10.272;2023-05-23T12:10:07;0.85;;;0.85;;
47373;SDS011;33123;50.118;10.272;2023-05-23T12:12:34;0.82;;;0.82;;
47373;SDS011;33123;50.118;10.272;2023-05-23T12:18:41;1.10;;;1.02;;
47373;SDS011;33123;50.118;10.272;2023-05-23T12:21:08;2.20;;;1.00;;
47373;SDS011;33123;50.118;10.272;2023-05-23T12:23:34;0.93;;;0.93;;
47373;SDS011;33123;50.118;10.272;2023-05-23T12:26:02;1.02;;;0.95;;
47373;SDS011;33123;50.118;10.272;2023-05-23T12:28:35;1.33;;;1.23;;
47373;SDS011;33123;50.118;10.272;2023-05-23T12:33:51;2.38;;;1.50;;
47373;SDS011;33123;50.118;10.272;2023-05-23T12:36:20;0.85;;;0.85;;
47373;SDS011;33123;50.118;10.272;2023-05-23T12:38:48;1.80;;;1.65;;
47373;SDS011;33123;50.118;10.272;2023-05-23T12:41:15;1.92;;;1.00;;
47373;SDS011;33123;50.118;10.272;2023-05-23T12:43:48;1.13;;;1.08;;
47373;SDS011;33123;50.118;10.272;2023-05-23T12:46:15;1.35;;;1.23;;
47373;SDS011;33123;50.118;10.272;2023-05-23T12:48:42;1.30;;;1.20;;
47373;SDS011;33123;50.118;10.272;2023-05-23T12:51:10;0.90;;;0.90;;
47373;SDS011;33123;50.118;10.272;2023-05-23T12:53:36;1.30;;;1.20;;
47373;SDS011;33123;50.118;10.272;2023-05-23T12:56:03;1.25;;;1.20;;
47373;SDS011;33123;50.118;10.272;2023-05-23T12:58:30;1.10;;;1.00;;
47373;SDS011;33123;50.118;10.272;2023-05-23T13:00:58;1.67;;;1.58;;
47373;SDS011;33123;50.118;10.272;2023-05-23T13:03:25;1.33;;;1.23;;
47373;SDS011;33123;50.118;10.272;2023-05-23T13:05:51;1.88;;;1.70;;
47373;SDS011;33123;50.118;10.272;2023-05-23T13:08:20;1.55;;;1.45;;
47373;SDS011;33123;50.118;10.272;2023-05-23T13:10:47;1.40;;;1.30;;
47373;SDS011;33123;50.118;10.272;2023-05-23T13:13:14;1.30;;;1.20;;
47373;SDS011;33123;50.118;10.272;2023-05-23T13:15:40;2.35;;;1.52;;
47373;SDS011;33123;50.118;10.272;2023-05-23T13:18:07;1.30;;;1.20;;
47373;SDS011;33123;50.118;10.272;2023-05-23T13:20:33;1.38;;;1.27;;
47373;SDS011;33123;50.118;10.272;2023-05-23T13:23:00;1.17;;;1.08;;
47373;SDS011;33123;50.118;10.272;2023-05-23T13:25:28;2.05;;;1.30;;
47373;SDS011;33123;50.118;10.272;2023-05-23T13:27:55;1.10;;;0.98;;
47373;SDS011;33123;50.118;10.272;2023-05-23T13:30:22;1.63;;;1.52;;
47373;SDS011;33123;50.118;10.272;2023-05-23T13:32:49;1.30;;;1.20;;
47373;SDS011;33123;50.118;10.272;2023-05-23T13:35:16;1.45;;;1.35;;
47373;SDS011;33123;50.118;10.272;2023-05-23T13:37:42;2.42;;;1.67;;
47373;SDS011;33123;50.118;10.272;2023-05-23T13:40:11;1.20;;;1.10;;
47373;SDS011;33123;50.118;10.272;2023-05-23T13:42:40;0.90;;;0.90;;
47373;SDS011;33123;50.118;10.272;2023-05-23T13:45:07;1.00;;;1.00;;
47373;SDS011;33123;50.118;10.272;2023-05-23T13:47:34;1.40;;;1.30;;
47373;SDS011;33123;50.118;10.272;2023-05-23T13:50:01;1.23;;;1.00;;
47373;SDS011;33123;50.118;10.272;2023-05-23T13:52:28;1.42;;;0.90;;
47373;SDS011;33123;50.118;10.272;2023-05-23T13:54:55;0.90;;;0.90;;
47373;SDS011;33123;50.118;10.272;2023-05-23T13:57:22;1.30;;;1.20;;
47373;SDS011;33123;50.118;10.272;2023-05-23T13:59:50;0.88;;;0.88;;
47373;SDS011;33123;50.118;10.272;2023-05-23T14:02:16;0.82;;;0.82;;
47373;SDS011;33123;50.118;10.272;2023-05-23T14:04:43;2.45;;;1.23;;
47373;SDS011;33123;50.118;10.272;2023-05-23T14:07:10;1.42;;;1.00;;
47373;SDS011;33123;50.118;10.272;2023-05-23T14:09:37;1.05;;;1.00;;
47373;SDS011;33123;50.118;10.272;2023-05-23T14:12:04;1.30;;;1.20;;
47373;SDS011;33123;50.118;10.272;2023-05-23T14:14:31;0.80;;;0.80;;
47373;SDS011;33123;50.118;10.272;2023-05-23T14:17:00;1.27;;;0.90;;
47373;SDS011;33123;50.118;10.272;2023-05-23T14:19:27;1.08;;;1.00;;
47373;SDS011;33123;50.118;10.272;2023-05-23T14:21:54;0.82;;;0.82;;
47373;SDS011;33123;50.118;10.272;2023-05-23T14:24:21;1.02;;;1.02;;
47373;SDS011;33123;50.118;10.272;2023-05-23T14:26:48;0.98;;;0.90;;
47373;SDS011;33123;50.118;10.272;2023-05-23T14:29:15;1.00;;;1.00;;
47373;SDS011;33123;50.118;10.272;2023-05-23T14:31:42;1.23;;;1.13;;
47373;SDS011;33123;50.118;10.272;2023-05-23T14:34:10;1.17;;;1.10;;
47373;SDS011;33123;50.118;10.272;2023-05-23T14:36:37;1.00;;;1.00;;
47373;SDS011;33123;50.118;10.272;2023-05-23T14:39:04;0.75;;;0.75;;
47373;SDS011;33123;50.118;10.272;2023-05-23T14:41:32;1.35;;;1.25;;
47373;SDS011;33123;50.118;10.272;2023-05-23T14:43:59;1.23;;;1.00;;
47373;SDS011;33123;50.118;10.272;2023-05-23T14:46:26;0.75;;;0.75;;
47373;SDS011;33123;50.118;10.272;2023-05-23T14:48:53;0.88;;;0.88;;